Erria Swan — 9HHJ9 — position and weather

sailwx.info

Track history (hours):
 
Tides and Currents Weather Stations Pressure Air Temp Water Temp Dewpoint Dewpoint Depression Visibility Wind Speed Wind Dir Waves Ship Positions

Erria Swan

Last reported at 2015-May-27 17:33 UTC. Time now 2015-May-27 17:48 UTC.
Position N 53°24' W 003°01'.

Length 134 m; draft 6.3 m.

Type: Tanker. MMSI: 256986000.

Date/timePositionNaut miles runAvg speedWind from/ knotsBaromVisibWave heightAir tempDewpointWater temp
2015-May-27 17:33N 53°24' W 003°01'0 0.2
2015-May-27 16:33N 53°24' W 003°01'0 0.0
2015-May-27 15:34N 53°24' W 003°01'1 0.8
2015-May-27 14:34N 53°24' W 003°03'0 0.0
2015-May-27 13:32N 53°24' W 003°03'0 0.0
2015-May-27 12:32N 53°24' W 003°03'0 0.0
2015-May-27 11:32N 53°24' W 003°03'0 0.0
2015-May-27 10:32N 53°24' W 003°03'0 0.0
2015-May-27 09:32N 53°24' W 003°03'0 0.0
2015-May-27 08:32N 53°24' W 003°03'0 0.4
2015-May-27 07:32N 53°25' W 003°03'0 0.0
2015-May-27 06:32N 53°25' W 003°03'0 0.0
2015-May-27 05:32N 53°25' W 003°03'0 0.0
2015-May-27 04:32N 53°25' W 003°03'0 0.0
2015-May-27 03:32N 53°25' W 003°03'0 0.0
2015-May-27 02:32N 53°25' W 003°03'0 0.0
2015-May-27 01:29N 53°25' W 003°03'0 0.0
2015-May-27 00:32N 53°25' W 003°03'0 0.0
2015-May-26 23:32N 53°25' W 003°03'0 0.0
2015-May-26 22:32N 53°25' W 003°03'0 0.0
2015-May-26 21:29N 53°25' W 003°03'0 0.0
2015-May-26 20:32N 53°25' W 003°03'0 0.0
2015-May-26 19:32N 53°25' W 003°03'0 0.0
2015-May-26 18:32N 53°25' W 003°03'0 0.0
2015-May-26 17:32N 53°25' W 003°03'0 0.0
2015-May-26 16:32N 53°25' W 003°03'0 0.0
2015-May-26 15:32N 53°25' W 003°03'0 0.0
2015-May-26 14:29N 53°25' W 003°03'0 0.0
2015-May-26 13:32N 53°25' W 003°03'0 0.0
2015-May-26 12:29N 53°25' W 003°03'0 0.0
2015-May-26 11:32N 53°25' W 003°03'0 0.0
2015-May-26 10:29N 53°25' W 003°03'0 0.0
2015-May-26 09:23N 53°25' W 003°03'0 0.0
2015-May-26 08:29N 53°25' W 003°03'0 0.0
2015-May-26 07:29N 53°25' W 003°03'0 0.0
2015-May-26 06:32N 53°25' W 003°03'0 0.0
2015-May-26 05:29N 53°25' W 003°03'0 0.0
2015-May-26 04:32N 53°25' W 003°03'0 0.0
2015-May-26 03:29N 53°25' W 003°03'0 0.0
2015-May-26 02:32N 53°25' W 003°03'0 0.0
2015-May-26 01:32N 53°25' W 003°03'0 0.0
2015-May-26 00:32N 53°25' W 003°03'0 0.0
2015-May-25 23:32N 53°25' W 003°03'0 0.0
2015-May-25 22:32N 53°25' W 003°03'0 0.0
2015-May-25 21:32N 53°25' W 003°03'0 0.0
2015-May-25 20:32N 53°25' W 003°03'0 0.0
2015-May-25 19:32N 53°25' W 003°03'0 0.0
2015-May-25 18:32N 53°25' W 003°03'0 0.0
2015-May-25 17:32N 53°25' W 003°03'0 0.0
2015-May-25 16:32N 53°25' W 003°03'0 0.0
2015-May-25 15:32N 53°25' W 003°03'0 0.0
2015-May-25 14:32N 53°25' W 003°03'0 0.0
2015-May-25 13:32N 53°25' W 003°03'0 0.0
2015-May-25 12:32N 53°25' W 003°03'0 0.0
2015-May-25 11:29N 53°25' W 003°03'0 0.0
2015-May-25 10:33N 53°25' W 003°03'0 0.0
2015-May-25 09:33N 53°25' W 003°03'0 0.0
2015-May-25 08:33N 53°25' W 003°03'0 0.0
2015-May-25 07:33N 53°25' W 003°03'0 0.0
2015-May-25 06:33N 53°25' W 003°03'1 1.2
2015-May-25 05:33N 53°24' W 003°01'0 0.0
2015-May-25 04:33N 53°24' W 003°01'0 0.3
2015-May-25 03:33N 53°24' W 003°01'5 4.9
2015-May-25 02:33N 53°20' W 002°57'1 1.0
2015-May-25 01:33N 53°19' W 002°56'2 2.5
2015-May-25 00:33N 53°17' W 002°53'0 0.5
2015-May-24 23:32N 53°17' W 002°53'0 0.0
2015-May-24 22:32N 53°17' W 002°53'0 0.0
2015-May-24 21:32N 53°17' W 002°53'0 0.0
2015-May-24 20:29N 53°17' W 002°53'0 0.0
2015-May-24 19:33N 53°17' W 002°53'0 0.0
2015-May-24 18:30N 53°17' W 002°53'0 0.0
2015-May-24 17:33N 53°17' W 002°53'0 0.0
2015-May-24 16:33N 53°17' W 002°53'0 0.0
2015-May-24 15:33N 53°17' W 002°53'0 0.0
2015-May-24 14:30N 53°17' W 002°53'0 0.0
2015-May-24 13:30N 53°17' W 002°53'0 0.0
2015-May-24 12:30N 53°17' W 002°53'0 0.0
2015-May-24 11:33N 53°17' W 002°53'0 0.0
2015-May-24 10:27N 53°17' W 002°53'0 0.0
2015-May-24 09:30N 53°17' W 002°53'0 0.0
2015-May-24 08:30N 53°17' W 002°53'0 0.0
2015-May-24 07:33N 53°17' W 002°53'0 0.0
2015-May-24 06:33N 53°17' W 002°53'0 0.0
2015-May-24 05:33N 53°17' W 002°53'3 2.8
2015-May-24 04:33N 53°19' W 002°56'1 1.1
2015-May-24 03:33N 53°20' W 002°57'4 4.3
2015-May-24 02:33N 53°24' W 003°00'8 8.5
2015-May-24 01:33N 53°31' W 003°07'8 8.3
2015-May-24 00:33N 53°31' W 003°21'9 8.7
2015-May-23 23:33N 53°31' W 003°36'1111.2
2015-May-23 22:33N 53°31' W 003°55'1111.4
2015-May-23 21:33N 53°31' W 004°14'1212.0
2015-May-23 20:33N 53°30' W 004°34'1010.0
2015-May-23 19:32N 53°23' W 004°47'10 9.4
2015-May-23 18:31N 53°15' W 004°54'3510.6
2015-May-23 15:14N 52°42' W 005°15'1112.2
2015-May-23 14:18N 52°31' W 005°21'912.1
2015-May-23 13:33N 52°23' W 005°26'1111.5
2015-May-23 12:33N 52°12' W 005°33'1413.5
2015-May-23 11:33N 51°60' W 005°41'1515.2
2015-May-23 10:32N 51°45' W 005°48'1414.4
2015-May-23 09:33N 51°31' W 005°52'5513.8
2015-May-23 05:33N 50°36' W 005°53'100 9.7
2015-May-22 19:11N 49°56' W 003°29'812.9
2015-May-22 18:33N 49°57' W 003°16'1513.9
2015-May-22 17:28N 49°59' W 002°53'3115.4
2015-May-22 15:28N 50°08' W 002°07'2913.8
2015-May-22 13:23N 50°15' W 001°24'1511.1
2015-May-22 12:03N 50°19' W 001°01'10 9.8
2015-May-22 11:03N 50°22' W 000°47'810.1
2015-May-22 10:18N 50°24' W 000°35'2111.7
2015-May-22 08:32N 50°29' W 000°04'1313.6
2015-May-22 07:33N 50°33' E 000°16'1414.2
2015-May-22 06:33N 50°38' E 000°37'1413.7
2015-May-22 05:33N 50°46' E 000°54'1312.8
2015-May-22 04:33N 50°55' E 001°10'1111.3
2015-May-22 03:34N 51°02' E 001°23'10 9.9
2015-May-22 02:33N 51°08' E 001°36'1010.1
2015-May-22 01:33N 51°16' E 001°47'1212.0
2015-May-22 00:34N 51°25' E 001°58'1212.5
2015-May-21 23:34N 51°20' E 002°17'1413.8
2015-May-21 22:33N 51°23' E 002°38'1313.0
2015-May-21 21:34N 51°24' E 002°59'1414.4
2015-May-21 20:33N 51°25' E 003°22'1312.8
2015-May-21 19:33N 51°24' E 003°43'1211.9
2015-May-21 18:34N 51°26' E 004°02'1110.6
2015-May-21 17:33N 51°20' E 004°16'4 4.3
2015-May-21 16:33N 51°17' E 004°20'1 0.8
2015-May-21 15:33N 51°16' E 004°21'1 1.2
2015-May-21 14:27N 51°15' E 004°22'0 0.0
2015-May-21 13:33N 51°15' E 004°22'0 0.0
2015-May-21 12:33N 51°15' E 004°22'0 0.0
2015-May-21 11:33N 51°15' E 004°22'0 0.0
2015-May-21 10:33N 51°15' E 004°22'0 0.0
2015-May-21 09:33N 51°15' E 004°22'0 0.0
2015-May-21 08:33N 51°15' E 004°22'0 0.0
2015-May-21 07:33N 51°15' E 004°22'0 0.0
2015-May-21 06:30N 51°15' E 004°22'0 0.0
2015-May-21 05:33N 51°15' E 004°22'0 0.0
2015-May-21 04:30N 51°15' E 004°22'0 0.0
2015-May-21 03:33N 51°15' E 004°22'0 0.0
2015-May-21 02:33N 51°15' E 004°22'0 0.0
2015-May-21 01:30N 51°15' E 004°22'0 0.0
2015-May-21 00:33N 51°15' E 004°22'0 0.0
2015-May-20 23:33N 51°15' E 004°22'0 0.0
2015-May-20 22:33N 51°15' E 004°22'0 0.0
2015-May-20 21:33N 51°15' E 004°22'0 0.0
2015-May-20 20:33N 51°15' E 004°22'0 0.0
2015-May-20 19:33N 51°15' E 004°22'0 0.0
2015-May-20 18:30N 51°15' E 004°22'0 0.0
2015-May-20 17:30N 51°15' E 004°22'0 0.0
2015-May-20 16:30N 51°15' E 004°22'0 0.0
2015-May-20 15:33N 51°15' E 004°22'0 0.0
2015-May-20 14:33N 51°15' E 004°22'0 0.0
2015-May-20 13:33N 51°15' E 004°22'0 0.0
2015-May-20 12:33N 51°15' E 004°22'0 0.0
2015-May-20 11:33N 51°15' E 004°22'0 0.0
2015-May-20 10:33N 51°15' E 004°22'0 0.0
2015-May-20 09:33N 51°15' E 004°22'0 0.0
2015-May-20 08:33N 51°15' E 004°22'0 0.0
2015-May-20 07:33N 51°15' E 004°22'0 0.0
2015-May-20 06:33N 51°15' E 004°22'0 0.0
2015-May-20 05:33N 51°15' E 004°22'0 0.0
2015-May-20 04:33N 51°15' E 004°22'3 3.2
2015-May-20 03:34N 51°18' E 004°20'3 3.1
2015-May-20 02:34N 51°21' E 004°17'0 0.0
2015-May-20 01:34N 51°21' E 004°17'2 2.5
2015-May-20 00:33N 51°18' E 004°17'2 2.4
2015-May-19 23:30N 51°16' E 004°17'1 0.9
2015-May-19 22:33N 51°16' E 004°15'0 0.0
2015-May-19 21:27N 51°16' E 004°15'0 0.0
2015-May-19 20:30N 51°16' E 004°15'0 0.0
2015-May-19 19:33N 51°16' E 004°15'0 0.0
2015-May-19 18:30N 51°16' E 004°15'0 0.0
2015-May-19 17:33N 51°16' E 004°15'0 0.0
2015-May-19 16:30N 51°16' E 004°15'0 0.0
2015-May-19 15:30N 51°16' E 004°15'0 0.0
2015-May-19 14:24N 51°16' E 004°15'0 0.0
2015-May-19 13:30N 51°16' E 004°15'0 0.0
2015-May-19 12:27N 51°16' E 004°15'0 0.0
2015-May-19 11:27N 51°16' E 004°15'0 0.0
2015-May-19 10:30N 51°16' E 004°15'0 0.0
2015-May-19 09:27N 51°16' E 004°15'0 0.0
2015-May-19 08:24N 51°16' E 004°15'0 0.0
2015-May-19 07:33N 51°16' E 004°15'0 0.0
2015-May-19 06:30N 51°16' E 004°15'0 0.0
2015-May-19 05:33N 51°16' E 004°15'0 0.0
2015-May-19 04:18N 51°16' E 004°15'0 0.0
2015-May-19 03:30N 51°16' E 004°15'0 0.0
2015-May-19 02:30N 51°16' E 004°15'0 0.0
2015-May-19 01:30N 51°16' E 004°15'0 0.0
2015-May-19 00:33N 51°16' E 004°15'0 0.0
2015-May-18 23:30N 51°16' E 004°15'0 0.0
2015-May-18 22:30N 51°16' E 004°15'0 0.0
2015-May-18 21:33N 51°16' E 004°15'0 0.0
2015-May-18 20:24N 51°16' E 004°15'0 0.0
2015-May-18 19:33N 51°16' E 004°15'0 0.0
2015-May-18 18:33N 51°16' E 004°15'0 0.0
2015-May-18 17:34N 51°16' E 004°15'0 0.0
2015-May-18 16:34N 51°16' E 004°15'0 0.0
2015-May-18 15:19N 51°16' E 004°15'0 0.0
2015-May-18 14:22N 51°16' E 004°15'0 0.0
2015-May-18 13:34N 51°16' E 004°15'0 0.0
2015-May-18 12:34N 51°16' E 004°15'0 0.0
2015-May-18 11:24N 51°16' E 004°15'0 0.0
2015-May-18 10:33N 51°16' E 004°15'  
Track history (hours):
 
Tides and Currents Weather Stations Pressure Air Temp Water Temp Dewpoint Dewpoint Depression Visibility Wind Speed Wind Dir Waves Ship Positions

Erria Swan

Last reported at 2015-May-27 17:33 UTC. Time now 2015-May-27 17:48 UTC.
Position N 53°24' W 003°01'.

Length 134 m; draft 6.3 m.

Type: Tanker. MMSI: 256986000.

Date/timePositionNaut miles runAvg speedWind from/ knotsBaromVisibWave heightAir tempDewpointWater temp
2015-May-27 17:33N 53°24' W 003°01'0 0.2
2015-May-27 16:33N 53°24' W 003°01'0 0.0
2015-May-27 15:34N 53°24' W 003°01'1 0.8
2015-May-27 14:34N 53°24' W 003°03'0 0.0
2015-May-27 13:32N 53°24' W 003°03'0 0.0
2015-May-27 12:32N 53°24' W 003°03'0 0.0
2015-May-27 11:32N 53°24' W 003°03'0 0.0
2015-May-27 10:32N 53°24' W 003°03'0 0.0
2015-May-27 09:32N 53°24' W 003°03'0 0.0
2015-May-27 08:32N 53°24' W 003°03'0 0.4
2015-May-27 07:32N 53°25' W 003°03'0 0.0
2015-May-27 06:32N 53°25' W 003°03'0 0.0
2015-May-27 05:32N 53°25' W 003°03'0 0.0
2015-May-27 04:32N 53°25' W 003°03'0 0.0
2015-May-27 03:32N 53°25' W 003°03'0 0.0
2015-May-27 02:32N 53°25' W 003°03'0 0.0
2015-May-27 01:29N 53°25' W 003°03'0 0.0
2015-May-27 00:32N 53°25' W 003°03'0 0.0
2015-May-26 23:32N 53°25' W 003°03'0 0.0
2015-May-26 22:32N 53°25' W 003°03'0 0.0
2015-May-26 21:29N 53°25' W 003°03'0 0.0
2015-May-26 20:32N 53°25' W 003°03'0 0.0
2015-May-26 19:32N 53°25' W 003°03'0 0.0
2015-May-26 18:32N 53°25' W 003°03'0 0.0
2015-May-26 17:32N 53°25' W 003°03'0 0.0
2015-May-26 16:32N 53°25' W 003°03'0 0.0
2015-May-26 15:32N 53°25' W 003°03'0 0.0
2015-May-26 14:29N 53°25' W 003°03'0 0.0
2015-May-26 13:32N 53°25' W 003°03'0 0.0
2015-May-26 12:29N 53°25' W 003°03'0 0.0
2015-May-26 11:32N 53°25' W 003°03'0 0.0
2015-May-26 10:29N 53°25' W 003°03'0 0.0
2015-May-26 09:23N 53°25' W 003°03'0 0.0
2015-May-26 08:29N 53°25' W 003°03'0 0.0
2015-May-26 07:29N 53°25' W 003°03'0 0.0
2015-May-26 06:32N 53°25' W 003°03'0 0.0
2015-May-26 05:29N 53°25' W 003°03'0 0.0
2015-May-26 04:32N 53°25' W 003°03'0 0.0
2015-May-26 03:29N 53°25' W 003°03'0 0.0
2015-May-26 02:32N 53°25' W 003°03'0 0.0
2015-May-26 01:32N 53°25' W 003°03'0 0.0
2015-May-26 00:32N 53°25' W 003°03'0 0.0
2015-May-25 23:32N 53°25' W 003°03'0 0.0
2015-May-25 22:32N 53°25' W 003°03'0 0.0
2015-May-25 21:32N 53°25' W 003°03'0 0.0
2015-May-25 20:32N 53°25' W 003°03'0 0.0
2015-May-25 19:32N 53°25' W 003°03'0 0.0
2015-May-25 18:32N 53°25' W 003°03'0 0.0
2015-May-25 17:32N 53°25' W 003°03'0 0.0
2015-May-25 16:32N 53°25' W 003°03'0 0.0
2015-May-25 15:32N 53°25' W 003°03'0 0.0
2015-May-25 14:32N 53°25' W 003°03'0 0.0
2015-May-25 13:32N 53°25' W 003°03'0 0.0
2015-May-25 12:32N 53°25' W 003°03'0 0.0
2015-May-25 11:29N 53°25' W 003°03'0 0.0
2015-May-25 10:33N 53°25' W 003°03'0 0.0
2015-May-25 09:33N 53°25' W 003°03'0 0.0
2015-May-25 08:33N 53°25' W 003°03'0 0.0
2015-May-25 07:33N 53°25' W 003°03'0 0.0
2015-May-25 06:33N 53°25' W 003°03'1 1.2
2015-May-25 05:33N 53°24' W 003°01'0 0.0
2015-May-25 04:33N 53°24' W 003°01'0 0.3
2015-May-25 03:33N 53°24' W 003°01'5 4.9
2015-May-25 02:33N 53°20' W 002°57'1 1.0
2015-May-25 01:33N 53°19' W 002°56'2 2.5
2015-May-25 00:33N 53°17' W 002°53'0 0.5
2015-May-24 23:32N 53°17' W 002°53'0 0.0
2015-May-24 22:32N 53°17' W 002°53'0 0.0
2015-May-24 21:32N 53°17' W 002°53'0 0.0
2015-May-24 20:29N 53°17' W 002°53'0 0.0
2015-May-24 19:33N 53°17' W 002°53'0 0.0
2015-May-24 18:30N 53°17' W 002°53'0 0.0
2015-May-24 17:33N 53°17' W 002°53'0 0.0
2015-May-24 16:33N 53°17' W 002°53'0 0.0
2015-May-24 15:33N 53°17' W 002°53'0 0.0
2015-May-24 14:30N 53°17' W 002°53'0 0.0
2015-May-24 13:30N 53°17' W 002°53'0 0.0
2015-May-24 12:30N 53°17' W 002°53'0 0.0
2015-May-24 11:33N 53°17' W 002°53'0 0.0
2015-May-24 10:27N 53°17' W 002°53'0 0.0
2015-May-24 09:30N 53°17' W 002°53'0 0.0
2015-May-24 08:30N 53°17' W 002°53'0 0.0
2015-May-24 07:33N 53°17' W 002°53'0 0.0
2015-May-24 06:33N 53°17' W 002°53'0 0.0
2015-May-24 05:33N 53°17' W 002°53'3 2.8
2015-May-24 04:33N 53°19' W 002°56'1 1.1
2015-May-24 03:33N 53°20' W 002°57'4 4.3
2015-May-24 02:33N 53°24' W 003°00'8 8.5
2015-May-24 01:33N 53°31' W 003°07'8 8.3
2015-May-24 00:33N 53°31' W 003°21'9 8.7
2015-May-23 23:33N 53°31' W 003°36'1111.2
2015-May-23 22:33N 53°31' W 003°55'1111.4
2015-May-23 21:33N 53°31' W 004°14'1212.0
2015-May-23 20:33N 53°30' W 004°34'1010.0
2015-May-23 19:32N 53°23' W 004°47'10 9.4
2015-May-23 18:31N 53°15' W 004°54'3510.6
2015-May-23 15:14N 52°42' W 005°15'1112.2
2015-May-23 14:18N 52°31' W 005°21'912.1
2015-May-23 13:33N 52°23' W 005°26'1111.5
2015-May-23 12:33N 52°12' W 005°33'1413.5
2015-May-23 11:33N 51°60' W 005°41'1515.2
2015-May-23 10:32N 51°45' W 005°48'1414.4
2015-May-23 09:33N 51°31' W 005°52'5513.8
2015-May-23 05:33N 50°36' W 005°53'100 9.7
2015-May-22 19:11N 49°56' W 003°29'812.9
2015-May-22 18:33N 49°57' W 003°16'1513.9
2015-May-22 17:28N 49°59' W 002°53'3115.4
2015-May-22 15:28N 50°08' W 002°07'2913.8
2015-May-22 13:23N 50°15' W 001°24'1511.1
2015-May-22 12:03N 50°19' W 001°01'10 9.8
2015-May-22 11:03N 50°22' W 000°47'810.1
2015-May-22 10:18N 50°24' W 000°35'2111.7
2015-May-22 08:32N 50°29' W 000°04'1313.6
2015-May-22 07:33N 50°33' E 000°16'1414.2
2015-May-22 06:33N 50°38' E 000°37'1413.7
2015-May-22 05:33N 50°46' E 000°54'1312.8
2015-May-22 04:33N 50°55' E 001°10'1111.3
2015-May-22 03:34N 51°02' E 001°23'10 9.9
2015-May-22 02:33N 51°08' E 001°36'1010.1
2015-May-22 01:33N 51°16' E 001°47'1212.0
2015-May-22 00:34N 51°25' E 001°58'1212.5
2015-May-21 23:34N 51°20' E 002°17'1413.8
2015-May-21 22:33N 51°23' E 002°38'1313.0
2015-May-21 21:34N 51°24' E 002°59'1414.4
2015-May-21 20:33N 51°25' E 003°22'1312.8
2015-May-21 19:33N 51°24' E 003°43'1211.9
2015-May-21 18:34N 51°26' E 004°02'1110.6
2015-May-21 17:33N 51°20' E 004°16'4 4.3
2015-May-21 16:33N 51°17' E 004°20'1 0.8
2015-May-21 15:33N 51°16' E 004°21'1 1.2
2015-May-21 14:27N 51°15' E 004°22'0 0.0
2015-May-21 13:33N 51°15' E 004°22'0 0.0
2015-May-21 12:33N 51°15' E 004°22'0 0.0
2015-May-21 11:33N 51°15' E 004°22'0 0.0
2015-May-21 10:33N 51°15' E 004°22'0 0.0
2015-May-21 09:33N 51°15' E 004°22'0 0.0
2015-May-21 08:33N 51°15' E 004°22'0 0.0
2015-May-21 07:33N 51°15' E 004°22'0 0.0
2015-May-21 06:30N 51°15' E 004°22'0 0.0
2015-May-21 05:33N 51°15' E 004°22'0 0.0
2015-May-21 04:30N 51°15' E 004°22'0 0.0
2015-May-21 03:33N 51°15' E 004°22'0 0.0
2015-May-21 02:33N 51°15' E 004°22'0 0.0
2015-May-21 01:30N 51°15' E 004°22'0 0.0
2015-May-21 00:33N 51°15' E 004°22'0 0.0
2015-May-20 23:33N 51°15' E 004°22'0 0.0
2015-May-20 22:33N 51°15' E 004°22'0 0.0
2015-May-20 21:33N 51°15' E 004°22'0 0.0
2015-May-20 20:33N 51°15' E 004°22'0 0.0
2015-May-20 19:33N 51°15' E 004°22'0 0.0
2015-May-20 18:30N 51°15' E 004°22'0 0.0
2015-May-20 17:30N 51°15' E 004°22'0 0.0
2015-May-20 16:30N 51°15' E 004°22'0 0.0
2015-May-20 15:33N 51°15' E 004°22'0 0.0
2015-May-20 14:33N 51°15' E 004°22'0 0.0
2015-May-20 13:33N 51°15' E 004°22'0 0.0
2015-May-20 12:33N 51°15' E 004°22'0 0.0
2015-May-20 11:33N 51°15' E 004°22'0 0.0
2015-May-20 10:33N 51°15' E 004°22'0 0.0
2015-May-20 09:33N 51°15' E 004°22'0 0.0
2015-May-20 08:33N 51°15' E 004°22'0 0.0
2015-May-20 07:33N 51°15' E 004°22'0 0.0
2015-May-20 06:33N 51°15' E 004°22'0 0.0
2015-May-20 05:33N 51°15' E 004°22'0 0.0
2015-May-20 04:33N 51°15' E 004°22'3 3.2
2015-May-20 03:34N 51°18' E 004°20'3 3.1
2015-May-20 02:34N 51°21' E 004°17'0 0.0
2015-May-20 01:34N 51°21' E 004°17'2 2.5
2015-May-20 00:33N 51°18' E 004°17'2 2.4
2015-May-19 23:30N 51°16' E 004°17'1 0.9
2015-May-19 22:33N 51°16' E 004°15'0 0.0
2015-May-19 21:27N 51°16' E 004°15'0 0.0
2015-May-19 20:30N 51°16' E 004°15'0 0.0
2015-May-19 19:33N 51°16' E 004°15'0 0.0
2015-May-19 18:30N 51°16' E 004°15'0 0.0
2015-May-19 17:33N 51°16' E 004°15'0 0.0
2015-May-19 16:30N 51°16' E 004°15'0 0.0
2015-May-19 15:30N 51°16' E 004°15'0 0.0
2015-May-19 14:24N 51°16' E 004°15'0 0.0
2015-May-19 13:30N 51°16' E 004°15'0 0.0
2015-May-19 12:27N 51°16' E 004°15'0 0.0
2015-May-19 11:27N 51°16' E 004°15'0 0.0
2015-May-19 10:30N 51°16' E 004°15'0 0.0
2015-May-19 09:27N 51°16' E 004°15'0 0.0
2015-May-19 08:24N 51°16' E 004°15'0 0.0
2015-May-19 07:33N 51°16' E 004°15'0 0.0
2015-May-19 06:30N 51°16' E 004°15'0 0.0
2015-May-19 05:33N 51°16' E 004°15'0 0.0
2015-May-19 04:18N 51°16' E 004°15'0 0.0
2015-May-19 03:30N 51°16' E 004°15'0 0.0
2015-May-19 02:30N 51°16' E 004°15'0 0.0
2015-May-19 01:30N 51°16' E 004°15'0 0.0
2015-May-19 00:33N 51°16' E 004°15'0 0.0
2015-May-18 23:30N 51°16' E 004°15'0 0.0
2015-May-18 22:30N 51°16' E 004°15'0 0.0
2015-May-18 21:33N 51°16' E 004°15'0 0.0
2015-May-18 20:24N 51°16' E 004°15'0 0.0
2015-May-18 19:33N 51°16' E 004°15'0 0.0
2015-May-18 18:33N 51°16' E 004°15'0 0.0
2015-May-18 17:34N 51°16' E 004°15'0 0.0
2015-May-18 16:34N 51°16' E 004°15'0 0.0
2015-May-18 15:19N 51°16' E 004°15'0 0.0
2015-May-18 14:22N 51°16' E 004°15'0 0.0
2015-May-18 13:34N 51°16' E 004°15'0 0.0
2015-May-18 12:34N 51°16' E 004°15'0 0.0
2015-May-18 11:24N 51°16' E 004°15'0 0.0
2015-May-18 10:33N 51°16' E 004°15'  

Dump ship's entire track history